West Farms, New York
Current Conditions -  °F | °C
As of 12:51 AM on Friday 28 Nov 2014 (Local Time) from KLGA Reporting Station
Few Clouds Few Clouds  
Wind Chill: -4°   Ceiling: Unl
Heat Index:   Visibility: 10mi
Dew Point: -4°   Wind: 12mph
Humidity: 70%   Direction: 300°WNW
Pressure: 30.06"   Gusts: NA
Location:  40.8446°N, 73.88°W
Report Text: KLGA 280551Z 30010KT 10SM FEW045 01/M04 A3006 RMK AO2 SLP179 T00111039 10028 20011 53003
Loading
Personal Weather Stations






























Interactive Weather Map New forecast layout! Learn more

10-Day Weather Forecast

Advertisements
Track Severe Weather on mobile